PWSweather.com
Personal Weather Stations
Station Observations
SEVANL01
SevillaES 41004

SevillaES 41004

Lat: 37.383633, Lon: -5.985787

Elevation: 19.685

Station Type: Davis Vantage Pro2

www.tiempoensevilla.es

High Low Average
Temperature 71.5°F21.9°C 62.0°F16.7°C 65.8°F18.8°C
Dew Point 60.6°F15.9°C 54.2°F12.3°C 58.1°F14.5°C
Winds 8.9 mph 14.3 kmh Calm Calm 4.0 mph SW6.4 kmh SW
Wind Gusts 18.0 mph29.0 kmh 1.0 mph1.6 kmh 9.0 mph14.5 kmh
Humidity 86% 59% 77%
Pressure 29.95 in1014.2 mb 29.86 in1011.2 mb -
Precipitation 0.03 in0.8 mm - -
Hour Temp Dew Point Humidity Winds Wind Gusts Pressure Precip Precip Rate Daily Precip Total
12:00 AM 67.3°F19.6°C 58.0°F14.4°C 72% 5.0 mph SSW8.0 kmh SSW 10.0 mph16.1 kmh 29.91 in1012.9 mb 0.00 in0.0 mm 0.00 in0.0 mm 0.00 in0.0 mm
12:20 AM 66.7°F19.3°C 58.1°F14.5°C 74% 5.0 mph SW8.0 kmh SW 11.0 mph17.7 kmh 29.91 in1012.9 mb 0.00 in0.0 mm 0.00 in0.0 mm 0.00 in0.0 mm
12:40 AM 66.5°F19.2°C 58.0°F14.4°C 74% 3.0 mph SW4.8 kmh SW 7.0 mph11.3 kmh 29.91 in1012.9 mb 0.00 in0.0 mm 0.00 in0.0 mm 0.00 in0.0 mm
01:00 AM 66.7°F19.3°C 57.8°F14.3°C 73% 2.9 mph SW4.7 kmh SW 6.0 mph9.7 kmh 29.91 in1012.9 mb 0.00 in0.0 mm 0.00 in0.0 mm 0.00 in0.0 mm
01:20 AM 66.3°F19.1°C 57.8°F14.3°C 74% 3.0 mph SSW4.8 kmh SSW 6.0 mph9.7 kmh 29.91 in1012.9 mb 0.00 in0.0 mm 0.00 in0.0 mm 0.00 in0.0 mm
01:40 AM 65.9°F18.8°C 57.7°F14.3°C 75% 2.0 mph SW3.2 kmh SW 5.0 mph8.0 kmh 29.90 in1012.5 mb 0.00 in0.0 mm 0.00 in0.0 mm 0.00 in0.0 mm
02:00 AM 66.1°F18.9°C 57.6°F14.2°C 74% 1.3 mph WSW2.1 kmh WSW 4.0 mph6.4 kmh 29.89 in1012.2 mb 0.00 in0.0 mm 0.00 in0.0 mm 0.00 in0.0 mm
02:20 AM 67.3°F19.6°C 56.8°F13.8°C 69% 0.6 mph WSW1.0 kmh WSW 4.0 mph6.4 kmh 29.88 in1011.9 mb 0.00 in0.0 mm 0.00 in0.0 mm 0.00 in0.0 mm
02:40 AM 67.6°F19.8°C 57.1°F13.9°C 69% Calm Calm 1.0 mph1.6 kmh 29.89 in1012.2 mb 0.00 in0.0 mm 0.00 in0.0 mm 0.00 in0.0 mm
03:00 AM 67.1°F19.5°C 57.0°F13.9°C 70% 1.6 mph S2.6 kmh S 3.0 mph4.8 kmh 29.89 in1012.2 mb 0.00 in0.0 mm 0.00 in0.0 mm 0.00 in0.0 mm
03:20 AM 67.2°F19.6°C 57.5°F14.2°C 71% Calm Calm 3.0 mph4.8 kmh 29.88 in1011.9 mb 0.00 in0.0 mm 0.00 in0.0 mm 0.00 in0.0 mm
03:40 AM 66.8°F19.3°C 58.6°F14.8°C 75% 0.6 mph S1.0 kmh S 1.0 mph1.6 kmh 29.88 in1011.9 mb 0.00 in0.0 mm 0.00 in0.0 mm 0.00 in0.0 mm
04:00 AM 66.5°F19.2°C 59.1°F15.1°C 77% 0.4 mph S0.6 kmh S 3.0 mph4.8 kmh 29.87 in1011.5 mb 0.00 in0.0 mm 0.00 in0.0 mm 0.00 in0.0 mm
04:20 AM 65.6°F18.7°C 59.6°F15.3°C 81% 2.0 mph WSW3.2 kmh WSW 6.0 mph9.7 kmh 29.86 in1011.2 mb 0.00 in0.0 mm 0.00 in0.0 mm 0.00 in0.0 mm
04:40 AM 64.5°F18.1°C 58.9°F14.9°C 82% 1.7 mph S2.7 kmh S 4.0 mph6.4 kmh 29.87 in1011.5 mb 0.01 in0.3 mm 0.03 in0.8 mm 0.01 in0.3 mm
05:00 AM 64.5°F18.1°C 58.9°F14.9°C 82% 2.0 mph SSW3.2 kmh SSW 4.0 mph6.4 kmh 29.89 in1012.2 mb 0.01 in0.3 mm 0.00 in0.0 mm 0.01 in0.3 mm
05:20 AM 64.5°F18.1°C 59.6°F15.3°C 84% 2.3 mph SSW3.7 kmh SSW 9.0 mph14.5 kmh 29.89 in1012.2 mb 0.01 in0.3 mm 0.00 in0.0 mm 0.01 in0.3 mm
05:40 AM 64.2°F17.9°C 59.3°F15.2°C 84% 1.0 mph SE1.6 kmh SE 4.0 mph6.4 kmh 29.88 in1011.9 mb 0.00 in0.0 mm 0.00 in0.0 mm 0.01 in0.3 mm
06:00 AM 64.5°F18.1°C 59.2°F15.1°C 83% 1.0 mph NE1.6 kmh NE 3.0 mph4.8 kmh 29.87 in1011.5 mb 0.01 in0.3 mm 0.02 in0.5 mm 0.02 in0.5 mm
06:20 AM 64.8°F18.2°C 59.9°F15.5°C 84% 0.5 mph E0.8 kmh E 3.0 mph4.8 kmh 29.88 in1011.9 mb 0.01 in0.3 mm 0.00 in0.0 mm 0.02 in0.5 mm
06:40 AM 65.1°F18.4°C 59.5°F15.3°C 82% 2.1 mph NE3.4 kmh NE 6.0 mph9.7 kmh 29.87 in1011.5 mb 0.01 in0.3 mm 0.00 in0.0 mm 0.02 in0.5 mm
07:00 AM 64.9°F18.3°C 59.6°F15.3°C 83% 4.8 mph ENE7.7 kmh ENE 9.0 mph14.5 kmh 29.86 in1011.2 mb 0.00 in0.0 mm 0.00 in0.0 mm 0.02 in0.5 mm
07:20 AM 64.8°F18.2°C 59.2°F15.1°C 82% 2.0 mph SE3.2 kmh SE 4.0 mph6.4 kmh 29.87 in1011.5 mb 0.00 in0.0 mm 0.00 in0.0 mm 0.02 in0.5 mm
07:40 AM 64.5°F18.1°C 59.9°F15.5°C 85% 4.2 mph SW6.8 kmh SW 11.0 mph17.7 kmh 29.88 in1011.9 mb 0.00 in0.0 mm 0.00 in0.0 mm 0.02 in0.5 mm
08:00 AM 63.9°F17.7°C 59.6°F15.3°C 86% 3.4 mph SW5.5 kmh SW 9.0 mph14.5 kmh 29.88 in1011.9 mb 0.00 in0.0 mm 0.00 in0.0 mm 0.02 in0.5 mm
08:20 AM 64.3°F17.9°C 60.0°F15.6°C 86% 3.2 mph SSW5.1 kmh SSW 7.0 mph11.3 kmh 29.89 in1012.2 mb 0.00 in0.0 mm 0.00 in0.0 mm 0.02 in0.5 mm
08:40 AM 65.2°F18.4°C 60.2°F15.7°C 84% 3.0 mph SW4.8 kmh SW 9.0 mph14.5 kmh 29.89 in1012.2 mb 0.00 in0.0 mm 0.00 in0.0 mm 0.02 in0.5 mm
09:00 AM 65.8°F18.8°C 60.5°F15.8°C 83% 2.8 mph SSW4.5 kmh SSW 7.0 mph11.3 kmh 29.89 in1012.2 mb 0.00 in0.0 mm 0.00 in0.0 mm 0.02 in0.5 mm
09:20 AM 66.1°F18.9°C 60.4°F15.8°C 82% 4.8 mph SW7.7 kmh SW 11.0 mph17.7 kmh 29.89 in1012.2 mb 0.00 in0.0 mm 0.00 in0.0 mm 0.02 in0.5 mm
09:40 AM 66.6°F19.2°C 60.6°F15.9°C 81% 5.7 mph SW9.2 kmh SW 14.0 mph22.5 kmh 29.89 in1012.2 mb 0.00 in0.0 mm 0.00 in0.0 mm 0.02 in0.5 mm
10:00 AM 67.4°F19.7°C 60.3°F15.7°C 78% 6.0 mph SW9.7 kmh SW 10.0 mph16.1 kmh 29.90 in1012.5 mb 0.00 in0.0 mm 0.00 in0.0 mm 0.02 in0.5 mm
10:20 AM 67.4°F19.7°C 59.2°F15.1°C 75% 5.5 mph SW8.9 kmh SW 14.0 mph22.5 kmh 29.90 in1012.5 mb 0.00 in0.0 mm 0.00 in0.0 mm 0.02 in0.5 mm
10:40 AM 67.1°F19.5°C 58.5°F14.7°C 74% 7.6 mph SW12.2 kmh SW 14.0 mph22.5 kmh 29.89 in1012.2 mb 0.00 in0.0 mm 0.00 in0.0 mm 0.02 in0.5 mm
11:00 AM 67.8°F19.9°C 58.1°F14.5°C 71% 5.2 mph SW8.4 kmh SW 11.0 mph17.7 kmh 29.90 in1012.5 mb 0.00 in0.0 mm 0.00 in0.0 mm 0.02 in0.5 mm
11:20 AM 67.4°F19.7°C 58.8°F14.9°C 74% 7.2 mph SW11.6 kmh SW 13.0 mph20.9 kmh 29.90 in1012.5 mb 0.00 in0.0 mm 0.00 in0.0 mm 0.02 in0.5 mm
11:40 AM 68.5°F20.3°C 58.7°F14.8°C 71% 6.8 mph WSW10.9 kmh WSW 13.0 mph20.9 kmh 29.89 in1012.2 mb 0.00 in0.0 mm 0.00 in0.0 mm 0.02 in0.5 mm
12:00 PM 69.4°F20.8°C 57.1°F13.9°C 65% 7.3 mph SW11.7 kmh SW 14.0 mph22.5 kmh 29.89 in1012.2 mb 0.00 in0.0 mm 0.00 in0.0 mm 0.02 in0.5 mm
12:20 PM 69.9°F21.1°C 57.2°F14.0°C 64% 7.9 mph SW12.7 kmh SW 15.0 mph24.1 kmh 29.89 in1012.2 mb 0.00 in0.0 mm 0.00 in0.0 mm 0.02 in0.5 mm
12:40 PM 71.1°F21.7°C 57.4°F14.1°C 62% 7.0 mph WSW11.3 kmh WSW 14.0 mph22.5 kmh 29.89 in1012.2 mb 0.00 in0.0 mm 0.00 in0.0 mm 0.02 in0.5 mm
01:00 PM 70.9°F21.6°C 57.7°F14.3°C 63% 6.0 mph WSW9.7 kmh WSW 13.0 mph20.9 kmh 29.88 in1011.9 mb 0.00 in0.0 mm 0.00 in0.0 mm 0.02 in0.5 mm
01:20 PM 71.5°F21.9°C 56.4°F13.6°C 59% 6.8 mph WSW10.9 kmh WSW 14.0 mph22.5 kmh 29.88 in1011.9 mb 0.00 in0.0 mm 0.00 in0.0 mm 0.02 in0.5 mm
01:40 PM 71.0°F21.7°C 57.3°F14.1°C 62% 5.4 mph WSW8.7 kmh WSW 12.0 mph19.3 kmh 29.88 in1011.9 mb 0.00 in0.0 mm 0.00 in0.0 mm 0.02 in0.5 mm
02:00 PM 70.2°F21.2°C 57.4°F14.1°C 64% 5.8 mph WSW9.3 kmh WSW 17.0 mph27.4 kmh 29.89 in1012.2 mb 0.00 in0.0 mm 0.00 in0.0 mm 0.02 in0.5 mm
02:20 PM 69.4°F20.8°C 58.0°F14.4°C 67% 6.5 mph WSW10.5 kmh WSW 15.0 mph24.1 kmh 29.88 in1011.9 mb 0.00 in0.0 mm 0.00 in0.0 mm 0.02 in0.5 mm
02:40 PM 69.2°F20.7°C 58.2°F14.6°C 68% 5.7 mph WSW9.2 kmh WSW 14.0 mph22.5 kmh 29.88 in1011.9 mb 0.00 in0.0 mm 0.00 in0.0 mm 0.02 in0.5 mm
03:00 PM 69.8°F21.0°C 57.9°F14.4°C 66% 5.6 mph WSW9.0 kmh WSW 11.0 mph17.7 kmh 29.88 in1011.9 mb 0.00 in0.0 mm 0.00 in0.0 mm 0.02 in0.5 mm
03:20 PM 69.6°F20.9°C 57.3°F14.1°C 65% 5.6 mph WSW9.0 kmh WSW 14.0 mph22.5 kmh 29.88 in1011.9 mb 0.00 in0.0 mm 0.00 in0.0 mm 0.02 in0.5 mm
03:40 PM 69.2°F20.7°C 57.4°F14.1°C 66% 8.4 mph WSW13.5 kmh WSW 17.0 mph27.4 kmh 29.89 in1012.2 mb 0.00 in0.0 mm 0.00 in0.0 mm 0.02 in0.5 mm
04:00 PM 66.9°F19.4°C 57.2°F14.0°C 71% 8.5 mph WSW13.7 kmh WSW 16.0 mph25.7 kmh 29.89 in1012.2 mb 0.00 in0.0 mm 0.00 in0.0 mm 0.02 in0.5 mm
04:20 PM 65.6°F18.7°C 56.7°F13.7°C 73% 8.9 mph SW14.3 kmh SW 18.0 mph29.0 kmh 29.89 in1012.2 mb 0.00 in0.0 mm 0.00 in0.0 mm 0.02 in0.5 mm
04:40 PM 65.0°F18.3°C 54.2°F12.3°C 68% 8.0 mph WSW12.9 kmh WSW 15.0 mph24.1 kmh 29.89 in1012.2 mb 0.00 in0.0 mm 0.00 in0.0 mm 0.02 in0.5 mm
05:00 PM 64.3°F17.9°C 57.3°F14.1°C 78% 7.6 mph SW12.2 kmh SW 13.0 mph20.9 kmh 29.90 in1012.5 mb 0.00 in0.0 mm 0.00 in0.0 mm 0.02 in0.5 mm
05:20 PM 64.0°F17.8°C 57.0°F13.9°C 78% 5.8 mph WSW9.3 kmh WSW 12.0 mph19.3 kmh 29.90 in1012.5 mb 0.00 in0.0 mm 0.00 in0.0 mm 0.02 in0.5 mm
05:40 PM 63.3°F17.4°C 57.4°F14.1°C 81% 5.1 mph SW8.2 kmh SW 11.0 mph17.7 kmh 29.91 in1012.9 mb 0.00 in0.0 mm 0.00 in0.0 mm 0.02 in0.5 mm
06:00 PM 62.3°F16.8°C 56.7°F13.7°C 82% 4.1 mph SW6.6 kmh SW 10.0 mph16.1 kmh 29.91 in1012.9 mb 0.01 in0.3 mm 0.02 in0.5 mm 0.02 in0.5 mm
06:20 PM 62.3°F16.8°C 56.4°F13.6°C 81% 3.0 mph SW4.8 kmh SW 8.0 mph12.9 kmh 29.90 in1012.5 mb 0.02 in0.5 mm 0.03 in0.8 mm 0.03 in0.8 mm
06:40 PM 62.7°F17.1°C 56.8°F13.8°C 81% 1.1 mph SW1.8 kmh SW 5.0 mph8.0 kmh 29.90 in1012.5 mb 0.02 in0.5 mm 0.00 in0.0 mm 0.03 in0.8 mm
07:00 PM 62.7°F17.1°C 56.8°F13.8°C 81% 2.2 mph SSW3.5 kmh SSW 5.0 mph8.0 kmh 29.90 in1012.5 mb 0.01 in0.3 mm 0.00 in0.0 mm 0.03 in0.8 mm
07:20 PM 63.3°F17.4°C 57.7°F14.3°C 82% 2.4 mph SW3.9 kmh SW 6.0 mph9.7 kmh 29.90 in1012.5 mb 0.00 in0.0 mm 0.00 in0.0 mm 0.03 in0.8 mm
07:40 PM 63.4°F17.4°C 57.5°F14.2°C 81% 3.1 mph SSW5.0 kmh SSW 7.0 mph11.3 kmh 29.91 in1012.9 mb 0.00 in0.0 mm 0.00 in0.0 mm 0.03 in0.8 mm
08:00 PM 63.7°F17.6°C 57.8°F14.3°C 81% 3.0 mph SSW4.8 kmh SSW 6.0 mph9.7 kmh 29.91 in1012.9 mb 0.00 in0.0 mm 0.00 in0.0 mm 0.03 in0.8 mm
08:20 PM 63.9°F17.7°C 58.0°F14.4°C 81% 2.9 mph SW4.7 kmh SW 6.0 mph9.7 kmh 29.92 in1013.2 mb 0.00 in0.0 mm 0.00 in0.0 mm 0.03 in0.8 mm
08:40 PM 63.6°F17.6°C 58.0°F14.4°C 82% 2.2 mph SSW3.5 kmh SSW 7.0 mph11.3 kmh 29.92 in1013.2 mb 0.00 in0.0 mm 0.00 in0.0 mm 0.03 in0.8 mm
09:00 PM 63.4°F17.4°C 58.1°F14.5°C 83% 2.7 mph SSW4.3 kmh SSW 6.0 mph9.7 kmh 29.92 in1013.2 mb 0.00 in0.0 mm 0.00 in0.0 mm 0.03 in0.8 mm
09:20 PM 63.1°F17.3°C 57.9°F14.4°C 83% 3.0 mph SW4.8 kmh SW 7.0 mph11.3 kmh 29.93 in1013.5 mb 0.00 in0.0 mm 0.00 in0.0 mm 0.03 in0.8 mm
09:40 PM 62.9°F17.2°C 57.7°F14.3°C 83% 3.0 mph SW4.8 kmh SW 9.0 mph14.5 kmh 29.93 in1013.5 mb 0.00 in0.0 mm 0.00 in0.0 mm 0.03 in0.8 mm
10:00 PM 62.6°F17.0°C 57.7°F14.3°C 84% 3.0 mph SW4.8 kmh SW 6.0 mph9.7 kmh 29.94 in1013.9 mb 0.00 in0.0 mm 0.00 in0.0 mm 0.03 in0.8 mm
10:20 PM 62.3°F16.8°C 57.7°F14.3°C 85% 1.8 mph SSW2.9 kmh SSW 5.0 mph8.0 kmh 29.94 in1013.9 mb 0.00 in0.0 mm 0.00 in0.0 mm 0.03 in0.8 mm
10:40 PM 62.3°F16.8°C 57.7°F14.3°C 85% 1.5 mph SSW2.4 kmh SSW 4.0 mph6.4 kmh 29.94 in1013.9 mb 0.00 in0.0 mm 0.00 in0.0 mm 0.03 in0.8 mm
11:00 PM 62.1°F16.7°C 57.5°F14.2°C 85% 2.0 mph S3.2 kmh S 6.0 mph9.7 kmh 29.95 in1014.2 mb 0.00 in0.0 mm 0.00 in0.0 mm 0.04 in1.0 mm
11:20 PM 62.1°F16.7°C 57.5°F14.2°C 85% 2.2 mph SSW3.5 kmh SSW 5.0 mph8.0 kmh 29.94 in1013.9 mb 0.00 in0.0 mm 0.00 in0.0 mm 0.04 in1.0 mm
11:40 PM 62.0°F16.7°C 57.4°F14.1°C 85% 1.7 mph SW2.7 kmh SW 4.0 mph6.4 kmh 29.94 in1013.9 mb 0.00 in0.0 mm 0.00 in0.0 mm 0.04 in1.0 mm